createdAt,value
2023-03-30T00:01:19.289Z,5.40
2023-03-30T00:03:47.352Z,5.40
2023-03-30T00:06:21.133Z,5.80
2023-03-30T00:08:49.417Z,5.40
2023-03-30T00:11:17.369Z,5.40
2023-03-30T00:13:44.883Z,5.40
2023-03-30T00:16:14.059Z,5.40
2023-03-30T00:18:41.395Z,5.40
2023-03-30T00:21:11.168Z,5.40
2023-03-30T00:23:38.719Z,5.40
2023-03-30T00:26:10.225Z,5.30
2023-03-30T00:28:37.578Z,5.30
2023-03-30T00:31:04.762Z,5.40
2023-03-30T00:33:44.893Z,5.40
2023-03-30T00:36:14.054Z,5.40
2023-03-30T00:38:41.413Z,5.30
2023-03-30T00:41:09.375Z,5.30
2023-03-30T00:43:54.564Z,5.30
2023-03-30T00:46:23.277Z,5.30
2023-03-30T00:48:50.620Z,5.30
2023-03-30T00:51:18.172Z,5.40
2023-03-30T00:53:47.675Z,5.30
2023-03-30T00:56:16.545Z,5.20
2023-03-30T00:58:44.813Z,5.30
2023-03-30T01:01:14.653Z,5.20
2023-03-30T01:03:48.022Z,5.20
2023-03-30T01:06:18.063Z,5.20
2023-03-30T01:08:45.653Z,5.20
2023-03-30T01:11:12.657Z,5.20
2023-03-30T01:13:46.267Z,5.20
2023-03-30T01:16:32.125Z,5.20
2023-03-30T01:19:03.171Z,5.10
2023-03-30T01:21:55.711Z,5.20
2023-03-30T01:24:42.945Z,5.20
2023-03-30T01:27:25.088Z,5.10
2023-03-30T01:30:14.145Z,5.20
2023-03-30T01:32:41.789Z,5.20
2023-03-30T01:35:23.591Z,5.20
2023-03-30T01:37:57.437Z,5.20
2023-03-30T01:40:31.818Z,5.20
2023-03-30T01:43:08.563Z,5.20
2023-03-30T01:45:48.736Z,5.20
2023-03-30T01:48:20.068Z,5.20
2023-03-30T01:50:53.153Z,5.10
2023-03-30T01:53:25.778Z,5.10
2023-03-30T01:55:53.095Z,5.10
2023-03-30T01:58:20.087Z,5.00
2023-03-30T02:00:50.119Z,5.00
2023-03-30T02:03:28.850Z,4.90
2023-03-30T02:05:58.668Z,4.80
2023-03-30T02:08:28.466Z,4.70
2023-03-30T02:10:57.250Z,4.70
2023-03-30T02:13:26.686Z,4.60
2023-03-30T02:15:59.494Z,4.60
2023-03-30T02:18:27.107Z,4.60
2023-03-30T02:20:56.322Z,4.50
2023-03-30T02:23:24.717Z,4.50
2023-03-30T02:25:53.725Z,4.40
2023-03-30T02:28:20.634Z,4.30
2023-03-30T02:30:47.964Z,4.30
2023-03-30T02:33:38.373Z,4.30
2023-03-30T02:36:28.002Z,4.30
2023-03-30T02:39:01.191Z,4.30
2023-03-30T02:41:44.524Z,4.30
2023-03-30T02:44:11.425Z,4.20
2023-03-30T02:46:57.567Z,4.20
2023-03-30T02:49:27.383Z,4.20
2023-03-30T02:52:04.313Z,4.10
2023-03-30T02:54:47.604Z,4.10
2023-03-30T02:57:28.780Z,4.10
2023-03-30T03:00:13.095Z,4.00
2023-03-30T03:02:42.258Z,4.00
2023-03-30T03:05:23.576Z,4.10
2023-03-30T03:08:15.584Z,4.10
2023-03-30T03:10:45.683Z,3.70
2023-03-30T03:13:15.158Z,4.20
2023-03-30T03:15:45.251Z,4.30
2023-03-30T03:18:13.135Z,4.30
2023-03-30T03:20:41.459Z,4.40
2023-03-30T03:23:09.371Z,4.40
2023-03-30T03:25:45.362Z,4.50
2023-03-30T03:28:15.500Z,4.50
2023-03-30T03:30:48.843Z,4.60
2023-03-30T03:33:22.193Z,4.50
2023-03-30T03:36:02.220Z,4.60
2023-03-30T03:38:32.419Z,4.60
2023-03-30T03:41:00.730Z,4.60
2023-03-30T03:43:29.541Z,4.60
2023-03-30T03:45:56.826Z,4.60
2023-03-30T03:48:24.510Z,4.60
2023-03-30T03:50:56.666Z,4.70
2023-03-30T03:53:26.393Z,4.60
2023-03-30T03:55:57.167Z,4.70
2023-03-30T03:58:24.988Z,4.70
2023-03-30T04:00:52.419Z,4.70
2023-03-30T04:03:19.848Z,4.70
2023-03-30T04:05:46.780Z,4.70
2023-03-30T04:08:14.173Z,4.70
2023-03-30T04:10:41.769Z,4.70
2023-03-30T04:13:45.745Z,4.80
2023-03-30T04:16:28.767Z,4.80
2023-03-30T04:19:18.866Z,4.80
2023-03-30T04:21:53.063Z,4.80
2023-03-30T04:24:38.500Z,4.90
2023-03-30T04:27:26.022Z,4.90
2023-03-30T04:30:12.188Z,4.90
2023-03-30T04:32:39.225Z,4.90
2023-03-30T04:35:19.263Z,5.00
2023-03-30T04:38:06.201Z,5.00
2023-03-30T04:41:14.245Z,5.00
2023-03-30T04:44:03.783Z,5.10
2023-03-30T04:46:49.670Z,5.30
2023-03-30T04:49:36.946Z,5.40
2023-03-30T04:52:39.280Z,5.50
2023-03-30T04:55:24.591Z,5.50
2023-03-30T04:58:22.444Z,5.60
2023-03-30T05:01:03.796Z,6.10
2023-03-30T05:03:48.854Z,6.70
2023-03-30T05:06:29.643Z,6.70
2023-03-30T05:09:15.682Z,6.50
2023-03-30T05:12:01.201Z,6.40
2023-03-30T05:14:47.921Z,6.20
2023-03-30T05:17:36.509Z,6.10
2023-03-30T05:20:37.473Z,6.00
2023-03-30T05:23:16.052Z,5.90
2023-03-30T05:26:26.391Z,5.80
2023-03-30T05:29:05.814Z,5.90
2023-03-30T05:31:53.519Z,6.00
2023-03-30T05:34:36.139Z,6.20
2023-03-30T05:37:19.642Z,6.40
2023-03-30T05:40:13.298Z,7.00
2023-03-30T05:42:45.821Z,7.60
2023-03-30T05:45:29.834Z,9.00
2023-03-30T05:48:17.447Z,9.90
2023-03-30T05:50:56.840Z,11.00
2023-03-30T05:53:33.480Z,11.60
2023-03-30T05:56:18.967Z,11.90
2023-03-30T05:59:06.121Z,11.90
2023-03-30T06:01:51.486Z,11.50
2023-03-30T06:04:19.421Z,11.00
2023-03-30T06:06:46.543Z,10.60
2023-03-30T06:09:13.842Z,10.40
2023-03-30T06:11:45.195Z,10.00
2023-03-30T06:14:19.560Z,9.80
2023-03-30T06:17:06.072Z,9.40
2023-03-30T06:19:33.268Z,9.10
2023-03-30T06:22:00.819Z,9.00
2023-03-30T06:25:00.769Z,9.00
2023-03-30T06:27:27.687Z,9.10
2023-03-30T06:29:55.121Z,9.30
2023-03-30T06:32:22.377Z,9.40
2023-03-30T06:35:08.241Z,9.70
2023-03-30T06:37:36.661Z,10.40
2023-03-30T06:40:17.319Z,10.80
2023-03-30T06:42:47.734Z,11.10
2023-03-30T06:45:30.938Z,11.50
2023-03-30T06:47:58.452Z,11.70
2023-03-30T06:50:26.559Z,11.60
2023-03-30T06:53:12.669Z,11.70
2023-03-30T06:55:44.470Z,11.70
2023-03-30T06:58:17.988Z,11.70
2023-03-30T07:00:46.085Z,11.60
2023-03-30T07:03:30.994Z,11.60
2023-03-30T07:06:08.856Z,11.40
2023-03-30T07:08:38.536Z,11.20
2023-03-30T07:11:07.264Z,11.10
2023-03-30T07:13:37.259Z,11.10
2023-03-30T07:16:05.010Z,11.00
2023-03-30T07:18:35.481Z,11.00
2023-03-30T07:21:05.147Z,10.90
2023-03-30T07:23:43.356Z,10.80
2023-03-30T07:26:18.659Z,10.90
2023-03-30T07:29:01.306Z,10.90
2023-03-30T07:31:31.180Z,10.90
2023-03-30T07:33:58.420Z,10.80
2023-03-30T07:36:30.335Z,10.80
2023-03-30T07:38:59.819Z,10.70
2023-03-30T07:41:27.355Z,10.60
2023-03-30T07:43:59.019Z,10.60
2023-03-30T07:46:26.633Z,10.70
2023-03-30T07:48:58.446Z,10.50
2023-03-30T07:51:28.039Z,10.40
2023-03-30T07:54:02.330Z,10.40
2023-03-30T07:56:40.542Z,10.40
2023-03-30T07:59:10.643Z,10.40
2023-03-30T08:01:38.982Z,10.40
2023-03-30T08:04:18.676Z,10.20
2023-03-30T08:06:46.019Z,10.20
2023-03-30T08:09:13.481Z,10.40
2023-03-30T08:11:41.763Z,10.40
2023-03-30T08:14:08.762Z,10.50
2023-03-30T08:16:36.024Z,10.60
2023-03-30T08:19:02.989Z,10.60
2023-03-30T08:21:30.253Z,10.60
2023-03-30T08:23:59.290Z,10.60
2023-03-30T08:26:27.040Z,10.70
2023-03-30T08:28:56.757Z,10.40
2023-03-30T08:31:24.030Z,10.30
2023-03-30T08:33:50.948Z,10.30
2023-03-30T08:36:20.213Z,10.20
2023-03-30T08:38:47.316Z,10.40
2023-03-30T08:41:23.501Z,10.70
2023-03-30T08:44:02.521Z,11.00
2023-03-30T08:46:30.787Z,11.20
2023-03-30T08:49:01.141Z,11.30
2023-03-30T08:51:29.275Z,11.60
2023-03-30T08:54:19.634Z,12.00
2023-03-30T08:56:49.898Z,12.30
2023-03-30T08:59:28.482Z,12.80
2023-03-30T09:02:01.210Z,12.90
2023-03-30T09:04:57.153Z,13.30
2023-03-30T09:07:27.796Z,13.50
2023-03-30T09:09:56.444Z,13.30
2023-03-30T09:12:23.416Z,13.40
2023-03-30T09:14:58.059Z,13.30
2023-03-30T09:17:38.027Z,13.20
2023-03-30T09:20:09.271Z,12.50
2023-03-30T09:22:40.708Z,12.30
2023-03-30T09:25:17.100Z,12.10
2023-03-30T09:28:02.914Z,11.90
2023-03-30T09:30:37.846Z,11.70
2023-03-30T09:33:07.637Z,11.50
2023-03-30T09:35:42.954Z,11.40
2023-03-30T09:38:10.755Z,11.20
2023-03-30T09:40:58.276Z,11.10
2023-03-30T09:43:46.226Z,10.70
2023-03-30T09:46:14.726Z,10.50
2023-03-30T09:48:45.827Z,10.60
2023-03-30T09:51:22.072Z,10.60
2023-03-30T09:53:50.756Z,10.70
2023-03-30T09:56:28.991Z,10.80
2023-03-30T09:58:56.270Z,10.70
2023-03-30T10:01:34.635Z,10.70
2023-03-30T10:04:10.022Z,10.70
2023-03-30T10:06:48.912Z,11.10
2023-03-30T10:09:18.004Z,11.50
2023-03-30T10:11:55.470Z,12.00
2023-03-30T10:14:28.782Z,12.20
2023-03-30T10:16:57.172Z,12.30
2023-03-30T10:19:25.029Z,12.40
2023-03-30T10:21:59.209Z,12.50
2023-03-30T10:24:28.113Z,12.60
2023-03-30T10:26:57.570Z,12.60
2023-03-30T10:29:26.551Z,12.50
2023-03-30T10:31:59.138Z,12.90
2023-03-30T10:34:37.053Z,13.00
2023-03-30T10:37:06.673Z,12.90
2023-03-30T10:39:34.647Z,12.90
2023-03-30T10:42:04.236Z,13.00
2023-03-30T10:44:42.755Z,13.20
2023-03-30T10:47:28.183Z,13.30
2023-03-30T10:50:01.283Z,13.60
2023-03-30T10:52:56.343Z,13.80
2023-03-30T10:55:43.075Z,13.90
2023-03-30T10:58:10.690Z,13.70
2023-03-30T11:00:48.417Z,13.40
2023-03-30T11:03:41.887Z,13.20
2023-03-30T11:06:16.348Z,13.20
2023-03-30T11:08:48.414Z,12.90
2023-03-30T11:11:36.782Z,13.10
2023-03-30T11:14:07.708Z,13.30
2023-03-30T11:16:53.809Z,13.30
2023-03-30T11:19:25.927Z,13.10
2023-03-30T11:22:00.254Z,13.30
2023-03-30T11:24:28.332Z,13.30
2023-03-30T11:27:05.338Z,13.30
2023-03-30T11:29:48.337Z,12.60
2023-03-30T11:32:35.713Z,12.40
2023-03-30T11:35:21.172Z,12.30
2023-03-30T11:37:54.296Z,12.40
2023-03-30T11:40:40.684Z,12.70
2023-03-30T11:43:10.405Z,12.80
2023-03-30T11:45:43.713Z,12.80
2023-03-30T11:48:22.603Z,13.00
2023-03-30T11:51:08.073Z,13.20
2023-03-30T11:53:44.079Z,13.10
2023-03-30T11:56:16.104Z,13.20
2023-03-30T11:58:46.280Z,13.30
2023-03-30T12:01:16.293Z,13.60
2023-03-30T12:03:46.873Z,13.60
2023-03-30T12:06:30.840Z,13.70
2023-03-30T12:09:00.640Z,13.40
2023-03-30T12:11:38.321Z,13.40
2023-03-30T12:14:21.206Z,13.40
2023-03-30T12:16:53.491Z,13.40
2023-03-30T12:19:25.342Z,13.60
2023-03-30T12:21:55.830Z,13.70
2023-03-30T12:24:29.264Z,13.80
2023-03-30T12:27:05.410Z,13.50
2023-03-30T12:30:01.546Z,13.20
2023-03-30T12:32:31.374Z,12.80
2023-03-30T12:34:58.673Z,12.70
2023-03-30T12:37:48.732Z,12.60
2023-03-30T12:40:22.593Z,12.40
2023-03-30T12:43:10.952Z,12.30
2023-03-30T12:45:48.488Z,12.30
2023-03-30T12:48:23.544Z,12.10
2023-03-30T12:50:56.963Z,12.00
2023-03-30T12:53:48.474Z,11.70
2023-03-30T12:56:34.231Z,11.60
2023-03-30T12:59:24.468Z,11.60
2023-03-30T13:02:00.052Z,11.60
2023-03-30T13:04:29.577Z,11.60
2023-03-30T13:07:02.477Z,11.50
2023-03-30T13:09:31.460Z,11.50
2023-03-30T13:11:58.430Z,11.40
2023-03-30T13:14:35.249Z,11.40
2023-03-30T13:17:02.486Z,11.50
2023-03-30T13:19:32.706Z,11.60
2023-03-30T13:22:03.520Z,12.50
2023-03-30T13:24:33.337Z,12.00
2023-03-30T13:27:29.816Z,12.10
2023-03-30T13:29:57.121Z,12.20
2023-03-30T13:32:30.709Z,12.30
2023-03-30T13:35:06.632Z,12.40
2023-03-30T13:37:40.812Z,12.50
2023-03-30T13:40:12.097Z,12.30
2023-03-30T13:42:49.545Z,12.30
2023-03-30T13:45:21.141Z,12.40
2023-03-30T13:47:51.090Z,12.40
2023-03-30T13:50:18.520Z,12.40
2023-03-30T13:52:46.682Z,12.40
2023-03-30T13:55:19.304Z,12.40
2023-03-30T13:57:46.413Z,12.30
2023-03-30T14:00:22.808Z,12.40
2023-03-30T14:02:49.838Z,12.30
2023-03-30T14:05:21.583Z,12.30
2023-03-30T14:07:49.782Z,12.20
2023-03-30T14:10:18.657Z,12.20
2023-03-30T14:12:48.116Z,12.10
2023-03-30T14:15:27.408Z,11.90
2023-03-30T14:17:55.843Z,11.80
2023-03-30T14:20:42.071Z,11.60
2023-03-30T14:23:14.953Z,11.60
2023-03-30T14:25:42.242Z,11.50
2023-03-30T14:28:13.706Z,11.40
2023-03-30T14:30:51.002Z,11.40
2023-03-30T14:33:18.293Z,11.40
2023-03-30T14:35:50.444Z,11.40
2023-03-30T14:38:20.407Z,11.30
2023-03-30T14:40:48.340Z,11.30
2023-03-30T14:43:21.027Z,11.40
2023-03-30T14:45:49.312Z,11.40
2023-03-30T14:48:21.301Z,11.30
2023-03-30T14:50:48.940Z,11.30
2023-03-30T14:53:19.143Z,11.30
2023-03-30T14:55:47.370Z,11.30
2023-03-30T14:58:15.114Z,11.30
2023-03-30T15:00:43.080Z,11.40
2023-03-30T15:03:17.064Z,11.40
2023-03-30T15:05:53.946Z,11.50
2023-03-30T15:08:24.615Z,11.50
2023-03-30T15:10:51.932Z,11.50
2023-03-30T15:13:23.591Z,11.60
2023-03-30T15:15:54.644Z,11.60
2023-03-30T15:18:24.875Z,11.70
2023-03-30T15:20:52.510Z,11.90
2023-03-30T15:23:19.623Z,11.90
2023-03-30T15:25:47.505Z,11.90
2023-03-30T15:28:24.160Z,12.00
2023-03-30T15:30:52.782Z,11.90
2023-03-30T15:33:25.001Z,11.90
2023-03-30T15:35:53.207Z,11.90
2023-03-30T15:38:28.882Z,11.90
2023-03-30T15:40:56.870Z,11.90
2023-03-30T15:43:25.781Z,11.80
2023-03-30T15:45:56.434Z,11.80
2023-03-30T15:48:26.170Z,11.60
2023-03-30T15:50:55.255Z,11.60
2023-03-30T15:53:36.748Z,11.50
2023-03-30T15:56:04.495Z,11.50
2023-03-30T15:58:33.017Z,11.40
2023-03-30T16:01:02.338Z,11.40
2023-03-30T16:03:40.729Z,11.30
2023-03-30T16:06:10.739Z,11.30
2023-03-30T16:08:42.630Z,11.30
2023-03-30T16:11:10.906Z,11.40
2023-03-30T16:13:45.963Z,11.40
2023-03-30T16:16:14.185Z,11.40
2023-03-30T16:18:42.765Z,11.40
2023-03-30T16:21:11.038Z,11.30
2023-03-30T16:23:38.932Z,11.30
2023-03-30T16:26:09.521Z,11.30
2023-03-30T16:28:36.677Z,11.30
2023-03-30T16:31:07.701Z,11.20
2023-03-30T16:33:35.184Z,11.20
2023-03-30T16:36:02.439Z,11.20
2023-03-30T16:38:29.396Z,11.20
2023-03-30T16:40:58.504Z,11.20
2023-03-30T16:43:27.225Z,11.20
2023-03-30T16:45:54.482Z,11.20
2023-03-30T16:48:21.980Z,11.20
2023-03-30T16:50:52.743Z,11.30
2023-03-30T16:53:19.873Z,11.20
2023-03-30T16:55:47.379Z,11.20
2023-03-30T16:58:17.437Z,11.20
2023-03-30T17:00:46.171Z,11.20
2023-03-30T17:03:13.961Z,11.20
2023-03-30T17:05:42.235Z,11.10
2023-03-30T17:08:18.326Z,11.20
2023-03-30T17:10:45.818Z,11.10
2023-03-30T17:13:14.030Z,11.10
2023-03-30T17:15:41.576Z,11.10
2023-03-30T17:18:16.370Z,11.10
2023-03-30T17:20:53.740Z,11.10
2023-03-30T17:23:22.415Z,11.10
2023-03-30T17:25:50.145Z,11.10
2023-03-30T17:28:21.188Z,11.10
2023-03-30T17:30:49.311Z,11.00
2023-03-30T17:33:19.526Z,11.00
2023-03-30T17:36:19.460Z,10.90
2023-03-30T17:38:46.615Z,10.90
2023-03-30T17:41:15.410Z,10.90
2023-03-30T17:43:43.631Z,10.60
2023-03-30T17:46:13.054Z,10.50
2023-03-30T17:48:40.710Z,10.50
2023-03-30T17:51:08.312Z,10.50
2023-03-30T17:53:36.873Z,10.50
2023-03-30T17:56:04.533Z,10.50
2023-03-30T17:58:34.045Z,10.50
2023-03-30T18:01:08.408Z,10.50
2023-03-30T18:03:38.314Z,10.60
2023-03-30T18:06:06.480Z,10.50
2023-03-30T18:08:33.686Z,10.50
2023-03-30T18:11:01.248Z,10.40
2023-03-30T18:13:28.998Z,10.30
2023-03-30T18:15:57.172Z,10.30
2023-03-30T18:18:26.088Z,10.30
2023-03-30T18:20:57.140Z,10.40
2023-03-30T18:23:24.141Z,10.40
2023-03-30T18:25:51.532Z,10.50
2023-03-30T18:28:22.398Z,10.50
2023-03-30T18:30:51.032Z,10.50
2023-03-30T18:33:18.156Z,10.60
2023-03-30T18:35:46.971Z,10.60
2023-03-30T18:38:15.584Z,10.60
2023-03-30T18:40:45.304Z,10.60
2023-03-30T18:43:12.978Z,10.60
2023-03-30T18:45:42.732Z,10.50
2023-03-30T18:48:14.130Z,10.50
2023-03-30T18:50:45.312Z,10.50
2023-03-30T18:53:13.412Z,10.40
2023-03-30T18:55:42.766Z,10.40
2023-03-30T18:58:18.349Z,10.30
2023-03-30T19:00:46.822Z,10.30
2023-03-30T19:03:18.846Z,10.30
2023-03-30T19:05:50.741Z,10.30
2023-03-30T19:08:19.036Z,10.20
2023-03-30T19:10:48.285Z,10.20
2023-03-30T19:13:17.268Z,10.10
2023-03-30T19:15:44.860Z,10.00
2023-03-30T19:18:12.476Z,10.00
2023-03-30T19:20:41.165Z,10.00
2023-03-30T19:23:10.080Z,10.00
2023-03-30T19:25:37.412Z,10.00
2023-03-30T19:28:05.346Z,10.00
2023-03-30T19:30:34.358Z,10.00
2023-03-30T19:33:03.918Z,10.10
2023-03-30T19:35:31.666Z,10.00
2023-03-30T19:37:58.612Z,10.00
2023-03-30T19:40:25.980Z,9.90
2023-03-30T19:42:53.288Z,9.90
2023-03-30T19:45:23.993Z,9.90
2023-03-30T19:47:51.759Z,10.00
2023-03-30T19:50:19.738Z,10.00
2023-03-30T19:52:48.755Z,10.00
2023-03-30T19:55:16.315Z,10.00
2023-03-30T19:57:45.998Z,10.00
2023-03-30T20:00:16.203Z,10.00
2023-03-30T20:02:44.826Z,10.00
2023-03-30T20:05:15.972Z,10.10
2023-03-30T20:07:43.944Z,10.10
2023-03-30T20:10:12.368Z,10.10
2023-03-30T20:12:39.531Z,10.10
2023-03-30T20:15:07.073Z,10.10
2023-03-30T20:17:36.341Z,10.10
2023-03-30T20:20:08.839Z,10.10
2023-03-30T20:22:36.955Z,10.10
2023-03-30T20:25:08.895Z,10.10
2023-03-30T20:27:36.266Z,10.20
2023-03-30T20:30:04.754Z,10.20
2023-03-30T20:32:31.820Z,10.30
2023-03-30T20:34:59.005Z,10.20
2023-03-30T20:37:25.949Z,10.30
2023-03-30T20:40:05.237Z,10.20
2023-03-30T20:42:34.434Z,10.20
2023-03-30T20:45:01.847Z,10.20
2023-03-30T20:47:31.053Z,10.20
2023-03-30T20:49:58.984Z,10.10
2023-03-30T20:52:26.618Z,10.10
2023-03-30T20:54:54.477Z,10.10
2023-03-30T20:57:22.474Z,10.10
2023-03-30T20:59:50.060Z,10.00
2023-03-30T21:02:17.550Z,10.10
2023-03-30T21:04:45.291Z,10.10
2023-03-30T21:07:12.529Z,10.00
2023-03-30T21:09:40.891Z,10.00
2023-03-30T21:12:09.740Z,10.10
2023-03-30T21:14:37.413Z,10.10
2023-03-30T21:17:04.444Z,10.10
2023-03-30T21:19:31.771Z,10.10
2023-03-30T21:22:00.376Z,10.20
2023-03-30T21:24:27.855Z,10.20
2023-03-30T21:26:54.781Z,10.20
2023-03-30T21:29:22.547Z,10.30
2023-03-30T21:31:49.663Z,10.30
2023-03-30T21:34:18.748Z,10.40
2023-03-30T21:36:46.068Z,10.40
2023-03-30T21:39:13.513Z,10.50
2023-03-30T21:41:40.469Z,10.50
2023-03-30T21:44:08.172Z,10.50
2023-03-30T21:46:35.391Z,10.50
2023-03-30T21:49:02.665Z,10.50
2023-03-30T21:51:30.409Z,10.60
2023-03-30T21:53:57.796Z,10.60
2023-03-30T21:56:25.997Z,10.60
2023-03-30T21:58:53.193Z,10.60
2023-03-30T22:01:20.931Z,10.60
2023-03-30T22:03:48.361Z,10.70
2023-03-30T22:06:16.266Z,10.60
2023-03-30T22:08:47.268Z,10.60
2023-03-30T22:11:15.940Z,10.60
2023-03-30T22:13:43.249Z,10.60
2023-03-30T22:16:18.775Z,10.60
2023-03-30T22:18:46.381Z,10.60
2023-03-30T22:21:14.937Z,10.50
2023-03-30T22:23:42.172Z,10.60
2023-03-30T22:26:09.606Z,10.70
2023-03-30T22:28:36.984Z,10.60
2023-03-30T22:31:10.507Z,10.60
2023-03-30T22:33:38.069Z,10.60
2023-03-30T22:36:07.162Z,10.50
2023-03-30T22:38:34.833Z,10.50
2023-03-30T22:41:06.450Z,10.50
2023-03-30T22:43:35.993Z,10.50
2023-03-30T22:46:03.880Z,10.40
2023-03-30T22:48:33.931Z,10.50
2023-03-30T22:51:04.761Z,10.50
2023-03-30T22:53:32.271Z,10.40
2023-03-30T22:55:59.185Z,10.40
2023-03-30T22:58:26.731Z,10.40
2023-03-30T23:00:59.117Z,10.30
2023-03-30T23:03:26.360Z,10.30
2023-03-30T23:05:53.310Z,10.30
2023-03-30T23:08:21.554Z,10.30
2023-03-30T23:10:49.076Z,10.30
2023-03-30T23:13:16.334Z,10.30
2023-03-30T23:15:43.481Z,10.30
2023-03-30T23:18:10.776Z,10.30
2023-03-30T23:20:37.755Z,10.30
2023-03-30T23:23:04.974Z,10.20
2023-03-30T23:25:31.851Z,10.20
2023-03-30T23:28:00.860Z,10.30
2023-03-30T23:30:27.752Z,10.30
2023-03-30T23:32:55.015Z,10.20
2023-03-30T23:35:21.924Z,10.20
2023-03-30T23:37:50.012Z,10.20
2023-03-30T23:40:17.026Z,10.20
2023-03-30T23:42:44.398Z,10.20
2023-03-30T23:45:11.512Z,10.20
2023-03-30T23:47:38.789Z,10.20
2023-03-30T23:50:06.029Z,10.20
2023-03-30T23:52:33.196Z,10.10
2023-03-30T23:55:01.854Z,10.10
2023-03-30T23:57:29.755Z,10.10
2023-03-30T23:59:56.756Z,10.10
